sensor_id;sensor_type;location;lat;lon;timestamp;P1;durP1;ratioP1;P2;durP2;ratioP2
57249;SDS011;43102;52.014;-0.680;2022-12-20T00:00:00;9.30;;;3.60;;
57249;SDS011;43102;52.014;-0.680;2022-12-20T00:01:00;9.30;;;3.60;;
57249;SDS011;43102;52.014;-0.680;2022-12-20T00:02:00;9.30;;;3.60;;
57249;SDS011;43102;52.014;-0.680;2022-12-20T00:03:00;9.30;;;3.60;;
57249;SDS011;43102;52.014;-0.680;2022-12-20T00:04:02;9.30;;;3.60;;
57249;SDS011;43102;52.014;-0.680;2022-12-20T00:05:00;9.30;;;3.60;;
57249;SDS011;43102;52.014;-0.680;2022-12-20T00:06:00;9.30;;;3.60;;
57249;SDS011;43102;52.014;-0.680;2022-12-20T00:07:00;9.30;;;3.60;;
57249;SDS011;43102;52.014;-0.680;2022-12-20T00:08:00;9.30;;;3.60;;
57249;SDS011;43102;52.014;-0.680;2022-12-20T00:09:02;9.30;;;3.60;;
57249;SDS011;43102;52.014;-0.680;2022-12-20T00:10:00;9.30;;;3.60;;
57249;SDS011;43102;52.014;-0.680;2022-12-20T00:11:02;9.30;;;3.60;;
57249;SDS011;43102;52.014;-0.680;2022-12-20T00:12:00;9.30;;;3.60;;
57249;SDS011;43102;52.014;-0.680;2022-12-20T00:13:00;9.30;;;3.60;;
57249;SDS011;43102;52.014;-0.680;2022-12-20T00:14:00;9.30;;;3.60;;
57249;SDS011;43102;52.014;-0.680;2022-12-20T00:15:00;9.30;;;3.60;;
57249;SDS011;43102;52.014;-0.680;2022-12-20T00:16:05;9.30;;;3.60;;
57249;SDS011;43102;52.014;-0.680;2022-12-20T00:17:00;9.30;;;3.60;;
57249;SDS011;43102;52.014;-0.680;2022-12-20T00:18:00;9.30;;;3.60;;
57249;SDS011;43102;52.014;-0.680;2022-12-20T00:19:02;9.30;;;3.60;;
57249;SDS011;43102;52.014;-0.680;2022-12-20T00:20:00;9.30;;;3.60;;
57249;SDS011;43102;52.014;-0.680;2022-12-20T00:21:01;9.30;;;3.60;;
57249;SDS011;43102;52.014;-0.680;2022-12-20T00:22:00;7.00;;;3.30;;
57249;SDS011;43102;52.014;-0.680;2022-12-20T00:23:00;7.00;;;3.30;;
57249;SDS011;43102;52.014;-0.680;2022-12-20T00:24:01;7.00;;;3.30;;
57249;SDS011;43102;52.014;-0.680;2022-12-20T00:25:00;7.00;;;3.30;;
57249;SDS011;43102;52.014;-0.680;2022-12-20T00:26:05;7.00;;;3.30;;
57249;SDS011;43102;52.014;-0.680;2022-12-20T00:27:00;7.00;;;3.30;;
57249;SDS011;43102;52.014;-0.680;2022-12-20T00:28:02;7.00;;;3.30;;
57249;SDS011;43102;52.014;-0.680;2022-12-20T00:29:00;7.00;;;3.30;;
57249;SDS011;43102;52.014;-0.680;2022-12-20T00:30:00;7.00;;;3.30;;
57249;SDS011;43102;52.014;-0.680;2022-12-20T00:31:01;7.00;;;3.30;;
57249;SDS011;43102;52.014;-0.680;2022-12-20T00:32:00;7.00;;;3.30;;
57249;SDS011;43102;52.014;-0.680;2022-12-20T00:33:00;7.00;;;3.30;;
57249;SDS011;43102;52.014;-0.680;2022-12-20T00:34:00;7.00;;;3.30;;
57249;SDS011;43102;52.014;-0.680;2022-12-20T00:35:00;7.00;;;3.30;;
57249;SDS011;43102;52.014;-0.680;2022-12-20T00:36:00;7.00;;;3.30;;
57249;SDS011;43102;52.014;-0.680;2022-12-20T00:37:00;7.00;;;3.30;;
57249;SDS011;43102;52.014;-0.680;2022-12-20T00:38:00;7.00;;;3.30;;
57249;SDS011;43102;52.014;-0.680;2022-12-20T00:39:00;7.00;;;3.30;;
57249;SDS011;43102;52.014;-0.680;2022-12-20T00:40:00;7.00;;;3.30;;
57249;SDS011;43102;52.014;-0.680;2022-12-20T00:41:03;7.00;;;3.30;;
57249;SDS011;43102;52.014;-0.680;2022-12-20T00:42:00;7.00;;;3.30;;
57249;SDS011;43102;52.014;-0.680;2022-12-20T00:43:00;7.00;;;3.30;;
57249;SDS011;43102;52.014;-0.680;2022-12-20T00:44:01;7.00;;;3.30;;
57249;SDS011;43102;52.014;-0.680;2022-12-20T00:45:01;7.00;;;3.30;;
57249;SDS011;43102;52.014;-0.680;2022-12-20T00:46:01;7.00;;;3.30;;
57249;SDS011;43102;52.014;-0.680;2022-12-20T00:47:00;7.00;;;3.30;;
57249;SDS011;43102;52.014;-0.680;2022-12-20T00:48:00;7.00;;;3.30;;
57249;SDS011;43102;52.014;-0.680;2022-12-20T00:49:00;7.00;;;3.30;;
57249;SDS011;43102;52.014;-0.680;2022-12-20T00:50:00;7.00;;;3.30;;
57249;SDS011;43102;52.014;-0.680;2022-12-20T00:51:02;7.00;;;3.30;;
57249;SDS011;43102;52.014;-0.680;2022-12-20T00:52:00;6.20;;;3.10;;
57249;SDS011;43102;52.014;-0.680;2022-12-20T00:53:00;6.20;;;3.10;;
57249;SDS011;43102;52.014;-0.680;2022-12-20T00:54:00;6.20;;;3.10;;
57249;SDS011;43102;52.014;-0.680;2022-12-20T00:55:00;6.20;;;3.10;;
57249;SDS011;43102;52.014;-0.680;2022-12-20T00:56:01;6.20;;;3.10;;
57249;SDS011;43102;52.014;-0.680;2022-12-20T00:57:00;6.20;;;3.10;;
57249;SDS011;43102;52.014;-0.680;2022-12-20T00:58:00;6.20;;;3.10;;
57249;SDS011;43102;52.014;-0.680;2022-12-20T00:59:00;6.20;;;3.10;;
57249;SDS011;43102;52.014;-0.680;2022-12-20T01:00:00;6.20;;;3.10;;
57249;SDS011;43102;52.014;-0.680;2022-12-20T01:01:00;6.20;;;3.10;;
57249;SDS011;43102;52.014;-0.680;2022-12-20T01:02:00;6.20;;;3.10;;
57249;SDS011;43102;52.014;-0.680;2022-12-20T01:03:00;6.20;;;3.10;;
57249;SDS011;43102;52.014;-0.680;2022-12-20T01:04:01;6.20;;;3.10;;
57249;SDS011;43102;52.014;-0.680;2022-12-20T01:05:00;6.20;;;3.10;;
57249;SDS011;43102;52.014;-0.680;2022-12-20T01:06:01;6.20;;;3.10;;
57249;SDS011;43102;52.014;-0.680;2022-12-20T01:07:01;6.20;;;3.10;;
57249;SDS011;43102;52.014;-0.680;2022-12-20T01:08:00;6.20;;;3.10;;
57249;SDS011;43102;52.014;-0.680;2022-12-20T01:09:00;6.20;;;3.10;;
57249;SDS011;43102;52.014;-0.680;2022-12-20T01:10:00;6.20;;;3.10;;
57249;SDS011;43102;52.014;-0.680;2022-12-20T01:11:06;6.20;;;3.10;;
57249;SDS011;43102;52.014;-0.680;2022-12-20T01:12:00;6.20;;;3.10;;
57249;SDS011;43102;52.014;-0.680;2022-12-20T01:13:00;6.20;;;3.10;;
57249;SDS011;43102;52.014;-0.680;2022-12-20T01:14:04;6.20;;;3.10;;
57249;SDS011;43102;52.014;-0.680;2022-12-20T01:15:00;6.20;;;3.10;;
57249;SDS011;43102;52.014;-0.680;2022-12-20T01:16:09;6.20;;;3.10;;
57249;SDS011;43102;52.014;-0.680;2022-12-20T01:17:00;6.20;;;3.10;;
57249;SDS011;43102;52.014;-0.680;2022-12-20T01:18:00;6.20;;;3.10;;
57249;SDS011;43102;52.014;-0.680;2022-12-20T01:19:01;6.20;;;3.10;;
57249;SDS011;43102;52.014;-0.680;2022-12-20T01:20:00;6.20;;;3.10;;
57249;SDS011;43102;52.014;-0.680;2022-12-20T01:21:02;6.20;;;3.10;;
57249;SDS011;43102;52.014;-0.680;2022-12-20T01:22:00;4.80;;;1.70;;
57249;SDS011;43102;52.014;-0.680;2022-12-20T01:23:00;4.80;;;1.70;;
57249;SDS011;43102;52.014;-0.680;2022-12-20T01:24:00;4.80;;;1.70;;
57249;SDS011;43102;52.014;-0.680;2022-12-20T01:25:00;4.80;;;1.70;;
57249;SDS011;43102;52.014;-0.680;2022-12-20T01:26:01;4.80;;;1.70;;
57249;SDS011;43102;52.014;-0.680;2022-12-20T01:27:00;4.80;;;1.70;;
57249;SDS011;43102;52.014;-0.680;2022-12-20T01:28:00;4.80;;;1.70;;
57249;SDS011;43102;52.014;-0.680;2022-12-20T01:29:00;4.80;;;1.70;;
57249;SDS011;43102;52.014;-0.680;2022-12-20T01:30:00;4.80;;;1.70;;
57249;SDS011;43102;52.014;-0.680;2022-12-20T01:31:00;4.80;;;1.70;;
57249;SDS011;43102;52.014;-0.680;2022-12-20T01:32:00;4.80;;;1.70;;
57249;SDS011;43102;52.014;-0.680;2022-12-20T01:33:00;4.80;;;1.70;;
57249;SDS011;43102;52.014;-0.680;2022-12-20T01:34:00;4.80;;;1.70;;
57249;SDS011;43102;52.014;-0.680;2022-12-20T01:35:00;4.80;;;1.70;;
57249;SDS011;43102;52.014;-0.680;2022-12-20T01:36:03;4.80;;;1.70;;
57249;SDS011;43102;52.014;-0.680;2022-12-20T01:37:00;4.80;;;1.70;;
57249;SDS011;43102;52.014;-0.680;2022-12-20T01:38:00;4.80;;;1.70;;
57249;SDS011;43102;52.014;-0.680;2022-12-20T01:39:04;4.80;;;1.70;;
57249;SDS011;43102;52.014;-0.680;2022-12-20T01:40:00;4.80;;;1.70;;
57249;SDS011;43102;52.014;-0.680;2022-12-20T01:41:00;4.80;;;1.70;;
57249;SDS011;43102;52.014;-0.680;2022-12-20T01:42:00;4.80;;;1.70;;
57249;SDS011;43102;52.014;-0.680;2022-12-20T01:43:00;4.80;;;1.70;;
57249;SDS011;43102;52.014;-0.680;2022-12-20T01:44:04;4.80;;;1.70;;
57249;SDS011;43102;52.014;-0.680;2022-12-20T01:45:00;4.80;;;1.70;;
57249;SDS011;43102;52.014;-0.680;2022-12-20T01:46:00;4.80;;;1.70;;
57249;SDS011;43102;52.014;-0.680;2022-12-20T01:47:00;4.80;;;1.70;;
57249;SDS011;43102;52.014;-0.680;2022-12-20T01:48:00;4.80;;;1.70;;
57249;SDS011;43102;52.014;-0.680;2022-12-20T01:50:02;4.80;;;1.70;;
57249;SDS011;43102;52.014;-0.680;2022-12-20T01:51:00;4.80;;;1.70;;
57249;SDS011;43102;52.014;-0.680;2022-12-20T01:52:06;4.60;;;1.60;;
57249;SDS011;43102;52.014;-0.680;2022-12-20T01:53:03;4.60;;;1.60;;
57249;SDS011;43102;52.014;-0.680;2022-12-20T01:54:08;4.60;;;1.60;;
57249;SDS011;43102;52.014;-0.680;2022-12-20T01:55:07;4.60;;;1.60;;
57249;SDS011;43102;52.014;-0.680;2022-12-20T01:56:03;4.60;;;1.60;;
57249;SDS011;43102;52.014;-0.680;2022-12-20T01:57:03;4.60;;;1.60;;
57249;SDS011;43102;52.014;-0.680;2022-12-20T01:58:05;4.60;;;1.60;;
57249;SDS011;43102;52.014;-0.680;2022-12-20T01:59:00;4.60;;;1.60;;
57249;SDS011;43102;52.014;-0.680;2022-12-20T02:00:01;4.60;;;1.60;;
57249;SDS011;43102;52.014;-0.680;2022-12-20T02:01:00;4.60;;;1.60;;
57249;SDS011;43102;52.014;-0.680;2022-12-20T02:02:03;4.60;;;1.60;;
57249;SDS011;43102;52.014;-0.680;2022-12-20T02:03:03;4.60;;;1.60;;
57249;SDS011;43102;52.014;-0.680;2022-12-20T02:04:00;4.60;;;1.60;;
57249;SDS011;43102;52.014;-0.680;2022-12-20T02:05:01;4.60;;;1.60;;
57249;SDS011;43102;52.014;-0.680;2022-12-20T02:06:14;4.60;;;1.60;;
57249;SDS011;43102;52.014;-0.680;2022-12-20T02:07:01;4.60;;;1.60;;
57249;SDS011;43102;52.014;-0.680;2022-12-20T02:08:00;4.60;;;1.60;;
57249;SDS011;43102;52.014;-0.680;2022-12-20T02:09:02;4.60;;;1.60;;
57249;SDS011;43102;52.014;-0.680;2022-12-20T02:10:01;4.60;;;1.60;;
57249;SDS011;43102;52.014;-0.680;2022-12-20T02:11:12;4.60;;;1.60;;
57249;SDS011;43102;52.014;-0.680;2022-12-20T02:12:10;4.60;;;1.60;;
57249;SDS011;43102;52.014;-0.680;2022-12-20T02:13:07;4.60;;;1.60;;
57249;SDS011;43102;52.014;-0.680;2022-12-20T02:14:09;4.60;;;1.60;;
57249;SDS011;43102;52.014;-0.680;2022-12-20T02:15:07;4.60;;;1.60;;
57249;SDS011;43102;52.014;-0.680;2022-12-20T02:16:02;4.60;;;1.60;;
57249;SDS011;43102;52.014;-0.680;2022-12-20T02:19:16;4.60;;;1.60;;
57249;SDS011;43102;52.014;-0.680;2022-12-20T02:21:07;4.60;;;1.60;;
57249;SDS011;43102;52.014;-0.680;2022-12-20T02:22:15;2.20;;;1.20;;
57249;SDS011;43102;52.014;-0.680;2022-12-20T02:23:09;2.20;;;1.20;;
57249;SDS011;43102;52.014;-0.680;2022-12-20T02:24:32;2.20;;;1.20;;
57249;SDS011;43102;52.014;-0.680;2022-12-20T02:26:10;2.20;;;1.20;;
57249;SDS011;43102;52.014;-0.680;2022-12-20T02:28:25;2.20;;;1.20;;
57249;SDS011;43102;52.014;-0.680;2022-12-20T02:29:16;2.20;;;1.20;;
57249;SDS011;43102;52.014;-0.680;2022-12-20T02:30:02;2.20;;;1.20;;
57249;SDS011;43102;52.014;-0.680;2022-12-20T02:31:04;2.20;;;1.20;;
57249;SDS011;43102;52.014;-0.680;2022-12-20T02:32:06;2.20;;;1.20;;
57249;SDS011;43102;52.014;-0.680;2022-12-20T02:33:03;2.20;;;1.20;;
57249;SDS011;43102;52.014;-0.680;2022-12-20T02:34:01;2.20;;;1.20;;
57249;SDS011;43102;52.014;-0.680;2022-12-20T02:35:00;2.20;;;1.20;;
57249;SDS011;43102;52.014;-0.680;2022-12-20T02:36:02;2.20;;;1.20;;
57249;SDS011;43102;52.014;-0.680;2022-12-20T02:37:00;2.20;;;1.20;;
57249;SDS011;43102;52.014;-0.680;2022-12-20T02:38:03;2.20;;;1.20;;
57249;SDS011;43102;52.014;-0.680;2022-12-20T02:39:00;2.20;;;1.20;;
57249;SDS011;43102;52.014;-0.680;2022-12-20T02:40:01;2.20;;;1.20;;
57249;SDS011;43102;52.014;-0.680;2022-12-20T02:41:04;2.20;;;1.20;;
57249;SDS011;43102;52.014;-0.680;2022-12-20T02:42:04;2.20;;;1.20;;
57249;SDS011;43102;52.014;-0.680;2022-12-20T02:43:03;2.20;;;1.20;;
57249;SDS011;43102;52.014;-0.680;2022-12-20T02:44:14;2.20;;;1.20;;
57249;SDS011;43102;52.014;-0.680;2022-12-20T02:45:15;2.20;;;1.20;;
57249;SDS011;43102;52.014;-0.680;2022-12-20T02:46:02;2.20;;;1.20;;
57249;SDS011;43102;52.014;-0.680;2022-12-20T02:47:02;2.20;;;1.20;;
57249;SDS011;43102;52.014;-0.680;2022-12-20T02:48:04;2.20;;;1.20;;
57249;SDS011;43102;52.014;-0.680;2022-12-20T02:49:03;2.20;;;1.20;;
57249;SDS011;43102;52.014;-0.680;2022-12-20T02:50:02;2.20;;;1.20;;
57249;SDS011;43102;52.014;-0.680;2022-12-20T02:51:02;2.20;;;1.20;;
57249;SDS011;43102;52.014;-0.680;2022-12-20T02:52:01;8.20;;;2.70;;
57249;SDS011;43102;52.014;-0.680;2022-12-20T02:53:00;8.20;;;2.70;;
57249;SDS011;43102;52.014;-0.680;2022-12-20T02:54:00;8.20;;;2.70;;
57249;SDS011;43102;52.014;-0.680;2022-12-20T02:55:01;8.20;;;2.70;;
57249;SDS011;43102;52.014;-0.680;2022-12-20T02:57:13;8.20;;;2.70;;
57249;SDS011;43102;52.014;-0.680;2022-12-20T02:58:05;8.20;;;2.70;;
57249;SDS011;43102;52.014;-0.680;2022-12-20T02:59:05;8.20;;;2.70;;
57249;SDS011;43102;52.014;-0.680;2022-12-20T03:00:12;8.20;;;2.70;;
57249;SDS011;43102;52.014;-0.680;2022-12-20T03:01:05;8.20;;;2.70;;
57249;SDS011;43102;52.014;-0.680;2022-12-20T03:02:01;8.20;;;2.70;;
57249;SDS011;43102;52.014;-0.680;2022-12-20T03:03:11;8.20;;;2.70;;
57249;SDS011;43102;52.014;-0.680;2022-12-20T03:04:01;8.20;;;2.70;;
57249;SDS011;43102;52.014;-0.680;2022-12-20T03:05:01;8.20;;;2.70;;
57249;SDS011;43102;52.014;-0.680;2022-12-20T03:06:00;8.20;;;2.70;;
57249;SDS011;43102;52.014;-0.680;2022-12-20T03:07:04;8.20;;;2.70;;
57249;SDS011;43102;52.014;-0.680;2022-12-20T03:08:00;8.20;;;2.70;;
57249;SDS011;43102;52.014;-0.680;2022-12-20T03:09:00;8.20;;;2.70;;
57249;SDS011;43102;52.014;-0.680;2022-12-20T03:10:00;8.20;;;2.70;;
57249;SDS011;43102;52.014;-0.680;2022-12-20T03:11:00;8.20;;;2.70;;
57249;SDS011;43102;52.014;-0.680;2022-12-20T03:12:00;8.20;;;2.70;;
57249;SDS011;43102;52.014;-0.680;2022-12-20T03:13:00;8.20;;;2.70;;
57249;SDS011;43102;52.014;-0.680;2022-12-20T03:14:00;8.20;;;2.70;;
57249;SDS011;43102;52.014;-0.680;2022-12-20T03:15:00;8.20;;;2.70;;
57249;SDS011;43102;52.014;-0.680;2022-12-20T03:16:01;8.20;;;2.70;;
57249;SDS011;43102;52.014;-0.680;2022-12-20T03:17:01;8.20;;;2.70;;
57249;SDS011;43102;52.014;-0.680;2022-12-20T03:18:00;8.20;;;2.70;;
57249;SDS011;43102;52.014;-0.680;2022-12-20T03:19:00;8.20;;;2.70;;
57249;SDS011;43102;52.014;-0.680;2022-12-20T03:20:00;8.20;;;2.70;;
57249;SDS011;43102;52.014;-0.680;2022-12-20T03:21:00;8.20;;;2.70;;
57249;SDS011;43102;52.014;-0.680;2022-12-20T03:22:00;5.70;;;2.20;;
57249;SDS011;43102;52.014;-0.680;2022-12-20T03:23:00;5.70;;;2.20;;
57249;SDS011;43102;52.014;-0.680;2022-12-20T03:24:00;5.70;;;2.20;;
57249;SDS011;43102;52.014;-0.680;2022-12-20T03:25:00;5.70;;;2.20;;
57249;SDS011;43102;52.014;-0.680;2022-12-20T03:26:00;5.70;;;2.20;;
57249;SDS011;43102;52.014;-0.680;2022-12-20T03:27:00;5.70;;;2.20;;
57249;SDS011;43102;52.014;-0.680;2022-12-20T03:28:00;5.70;;;2.20;;
57249;SDS011;43102;52.014;-0.680;2022-12-20T03:29:00;5.70;;;2.20;;
57249;SDS011;43102;52.014;-0.680;2022-12-20T03:30:00;5.70;;;2.20;;
57249;SDS011;43102;52.014;-0.680;2022-12-20T03:31:00;5.70;;;2.20;;
57249;SDS011;43102;52.014;-0.680;2022-12-20T03:32:00;5.70;;;2.20;;
57249;SDS011;43102;52.014;-0.680;2022-12-20T03:33:00;5.70;;;2.20;;
57249;SDS011;43102;52.014;-0.680;2022-12-20T03:34:00;5.70;;;2.20;;
57249;SDS011;43102;52.014;-0.680;2022-12-20T03:35:00;5.70;;;2.20;;
57249;SDS011;43102;52.014;-0.680;2022-12-20T03:36:00;5.70;;;2.20;;
57249;SDS011;43102;52.014;-0.680;2022-12-20T03:37:00;5.70;;;2.20;;
57249;SDS011;43102;52.014;-0.680;2022-12-20T03:38:00;5.70;;;2.20;;
57249;SDS011;43102;52.014;-0.680;2022-12-20T03:39:00;5.70;;;2.20;;
57249;SDS011;43102;52.014;-0.680;2022-12-20T03:40:00;5.70;;;2.20;;
57249;SDS011;43102;52.014;-0.680;2022-12-20T03:41:00;5.70;;;2.20;;
57249;SDS011;43102;52.014;-0.680;2022-12-20T03:42:00;5.70;;;2.20;;
57249;SDS011;43102;52.014;-0.680;2022-12-20T03:43:00;5.70;;;2.20;;
57249;SDS011;43102;52.014;-0.680;2022-12-20T03:44:00;5.70;;;2.20;;
57249;SDS011;43102;52.014;-0.680;2022-12-20T03:45:00;5.70;;;2.20;;
57249;SDS011;43102;52.014;-0.680;2022-12-20T03:46:00;5.70;;;2.20;;
57249;SDS011;43102;52.014;-0.680;2022-12-20T03:47:00;5.70;;;2.20;;
57249;SDS011;43102;52.014;-0.680;2022-12-20T03:48:00;5.70;;;2.20;;
57249;SDS011;43102;52.014;-0.680;2022-12-20T03:49:00;5.70;;;2.20;;
57249;SDS011;43102;52.014;-0.680;2022-12-20T03:50:00;5.70;;;2.20;;
57249;SDS011;43102;52.014;-0.680;2022-12-20T03:51:00;5.70;;;2.20;;
57249;SDS011;43102;52.014;-0.680;2022-12-20T03:52:00;10.60;;;3.80;;
57249;SDS011;43102;52.014;-0.680;2022-12-20T03:53:00;10.60;;;3.80;;
57249;SDS011;43102;52.014;-0.680;2022-12-20T03:54:00;10.60;;;3.80;;
57249;SDS011;43102;52.014;-0.680;2022-12-20T03:55:00;10.60;;;3.80;;
57249;SDS011;43102;52.014;-0.680;2022-12-20T03:56:00;10.60;;;3.80;;
57249;SDS011;43102;52.014;-0.680;2022-12-20T03:57:00;10.60;;;3.80;;
57249;SDS011;43102;52.014;-0.680;2022-12-20T03:58:00;10.60;;;3.80;;
57249;SDS011;43102;52.014;-0.680;2022-12-20T03:59:00;10.60;;;3.80;;
57249;SDS011;43102;52.014;-0.680;2022-12-20T04:00:00;10.60;;;3.80;;
57249;SDS011;43102;52.014;-0.680;2022-12-20T04:01:00;10.60;;;3.80;;
57249;SDS011;43102;52.014;-0.680;2022-12-20T04:02:01;10.60;;;3.80;;
57249;SDS011;43102;52.014;-0.680;2022-12-20T04:03:00;10.60;;;3.80;;
57249;SDS011;43102;52.014;-0.680;2022-12-20T04:04:01;10.60;;;3.80;;
57249;SDS011;43102;52.014;-0.680;2022-12-20T04:05:00;10.60;;;3.80;;
57249;SDS011;43102;52.014;-0.680;2022-12-20T04:06:00;10.60;;;3.80;;
57249;SDS011;43102;52.014;-0.680;2022-12-20T04:07:00;10.60;;;3.80;;
57249;SDS011;43102;52.014;-0.680;2022-12-20T04:08:00;10.60;;;3.80;;
57249;SDS011;43102;52.014;-0.680;2022-12-20T04:09:00;10.60;;;3.80;;
57249;SDS011;43102;52.014;-0.680;2022-12-20T04:10:00;10.60;;;3.80;;
57249;SDS011;43102;52.014;-0.680;2022-12-20T04:11:10;10.60;;;3.80;;
57249;SDS011;43102;52.014;-0.680;2022-12-20T04:12:00;10.60;;;3.80;;
57249;SDS011;43102;52.014;-0.680;2022-12-20T04:13:00;10.60;;;3.80;;
57249;SDS011;43102;52.014;-0.680;2022-12-20T04:14:00;10.60;;;3.80;;
57249;SDS011;43102;52.014;-0.680;2022-12-20T04:15:00;10.60;;;3.80;;
57249;SDS011;43102;52.014;-0.680;2022-12-20T04:16:01;10.60;;;3.80;;
57249;SDS011;43102;52.014;-0.680;2022-12-20T04:17:00;10.60;;;3.80;;
57249;SDS011;43102;52.014;-0.680;2022-12-20T04:18:00;10.60;;;3.80;;
57249;SDS011;43102;52.014;-0.680;2022-12-20T04:19:00;10.60;;;3.80;;
57249;SDS011;43102;52.014;-0.680;2022-12-20T04:20:15;10.60;;;3.80;;
57249;SDS011;43102;52.014;-0.680;2022-12-20T04:21:00;10.60;;;3.80;;
57249;SDS011;43102;52.014;-0.680;2022-12-20T04:22:06;9.40;;;2.90;;
57249;SDS011;43102;52.014;-0.680;2022-12-20T04:23:00;9.40;;;2.90;;
57249;SDS011;43102;52.014;-0.680;2022-12-20T04:24:01;9.40;;;2.90;;
57249;SDS011;43102;52.014;-0.680;2022-12-20T04:25:00;9.40;;;2.90;;
57249;SDS011;43102;52.014;-0.680;2022-12-20T04:26:01;9.40;;;2.90;;
57249;SDS011;43102;52.014;-0.680;2022-12-20T04:27:00;9.40;;;2.90;;
57249;SDS011;43102;52.014;-0.680;2022-12-20T04:28:00;9.40;;;2.90;;
57249;SDS011;43102;52.014;-0.680;2022-12-20T04:29:00;9.40;;;2.90;;
57249;SDS011;43102;52.014;-0.680;2022-12-20T04:30:00;9.40;;;2.90;;
57249;SDS011;43102;52.014;-0.680;2022-12-20T04:31:01;9.40;;;2.90;;
57249;SDS011;43102;52.014;-0.680;2022-12-20T04:32:00;9.40;;;2.90;;
57249;SDS011;43102;52.014;-0.680;2022-12-20T04:33:00;9.40;;;2.90;;
57249;SDS011;43102;52.014;-0.680;2022-12-20T04:34:00;9.40;;;2.90;;
57249;SDS011;43102;52.014;-0.680;2022-12-20T04:35:00;9.40;;;2.90;;
57249;SDS011;43102;52.014;-0.680;2022-12-20T04:36:00;9.40;;;2.90;;
57249;SDS011;43102;52.014;-0.680;2022-12-20T04:37:00;9.40;;;2.90;;
57249;SDS011;43102;52.014;-0.680;2022-12-20T04:38:00;9.40;;;2.90;;
57249;SDS011;43102;52.014;-0.680;2022-12-20T04:39:00;9.40;;;2.90;;
57249;SDS011;43102;52.014;-0.680;2022-12-20T04:40:00;9.40;;;2.90;;
57249;SDS011;43102;52.014;-0.680;2022-12-20T04:41:00;9.40;;;2.90;;
57249;SDS011;43102;52.014;-0.680;2022-12-20T04:42:00;9.40;;;2.90;;
57249;SDS011;43102;52.014;-0.680;2022-12-20T04:43:00;9.40;;;2.90;;
57249;SDS011;43102;52.014;-0.680;2022-12-20T04:44:00;9.40;;;2.90;;
57249;SDS011;43102;52.014;-0.680;2022-12-20T04:45:00;9.40;;;2.90;;
57249;SDS011;43102;52.014;-0.680;2022-12-20T04:46:00;9.40;;;2.90;;
57249;SDS011;43102;52.014;-0.680;2022-12-20T04:47:01;9.40;;;2.90;;
57249;SDS011;43102;52.014;-0.680;2022-12-20T04:48:10;9.40;;;2.90;;
57249;SDS011;43102;52.014;-0.680;2022-12-20T04:49:00;9.40;;;2.90;;
57249;SDS011;43102;52.014;-0.680;2022-12-20T04:50:00;9.40;;;2.90;;
57249;SDS011;43102;52.014;-0.680;2022-12-20T04:51:00;9.40;;;2.90;;
57249;SDS011;43102;52.014;-0.680;2022-12-20T04:52:10;2.20;;;1.40;;
57249;SDS011;43102;52.014;-0.680;2022-12-20T04:53:10;2.20;;;1.40;;
57249;SDS011;43102;52.014;-0.680;2022-12-20T04:54:00;2.20;;;1.40;;
57249;SDS011;43102;52.014;-0.680;2022-12-20T04:55:00;2.20;;;1.40;;
57249;SDS011;43102;52.014;-0.680;2022-12-20T04:56:00;2.20;;;1.40;;
57249;SDS011;43102;52.014;-0.680;2022-12-20T04:57:00;2.20;;;1.40;;
57249;SDS011;43102;52.014;-0.680;2022-12-20T04:58:07;2.20;;;1.40;;
57249;SDS011;43102;52.014;-0.680;2022-12-20T04:59:01;2.20;;;1.40;;
57249;SDS011;43102;52.014;-0.680;2022-12-20T05:00:00;2.20;;;1.40;;
57249;SDS011;43102;52.014;-0.680;2022-12-20T05:01:00;2.20;;;1.40;;
57249;SDS011;43102;52.014;-0.680;2022-12-20T05:02:00;2.20;;;1.40;;
57249;SDS011;43102;52.014;-0.680;2022-12-20T05:03:00;2.20;;;1.40;;
57249;SDS011;43102;52.014;-0.680;2022-12-20T05:04:01;2.20;;;1.40;;
57249;SDS011;43102;52.014;-0.680;2022-12-20T05:05:00;2.20;;;1.40;;
57249;SDS011;43102;52.014;-0.680;2022-12-20T05:06:00;2.20;;;1.40;;
57249;SDS011;43102;52.014;-0.680;2022-12-20T05:07:00;2.20;;;1.40;;
57249;SDS011;43102;52.014;-0.680;2022-12-20T05:08:00;2.20;;;1.40;;
57249;SDS011;43102;52.014;-0.680;2022-12-20T05:09:00;2.20;;;1.40;;
57249;SDS011;43102;52.014;-0.680;2022-12-20T05:10:00;2.20;;;1.40;;
57249;SDS011;43102;52.014;-0.680;2022-12-20T05:11:00;2.20;;;1.40;;
57249;SDS011;43102;52.014;-0.680;2022-12-20T05:12:00;2.20;;;1.40;;
57249;SDS011;43102;52.014;-0.680;2022-12-20T05:13:09;2.20;;;1.40;;
57249;SDS011;43102;52.014;-0.680;2022-12-20T05:14:00;2.20;;;1.40;;
57249;SDS011;43102;52.014;-0.680;2022-12-20T05:15:00;2.20;;;1.40;;
57249;SDS011;43102;52.014;-0.680;2022-12-20T05:16:00;2.20;;;1.40;;
57249;SDS011;43102;52.014;-0.680;2022-12-20T05:17:00;2.20;;;1.40;;
57249;SDS011;43102;52.014;-0.680;2022-12-20T05:18:00;2.20;;;1.40;;
57249;SDS011;43102;52.014;-0.680;2022-12-20T05:19:02;2.20;;;1.40;;
57249;SDS011;43102;52.014;-0.680;2022-12-20T05:20:00;2.20;;;1.40;;
57249;SDS011;43102;52.014;-0.680;2022-12-20T05:21:11;2.20;;;1.40;;
57249;SDS011;43102;52.014;-0.680;2022-12-20T05:22:10;5.50;;;2.10;;
57249;SDS011;43102;52.014;-0.680;2022-12-20T05:23:10;5.50;;;2.10;;
57249;SDS011;43102;52.014;-0.680;2022-12-20T05:24:10;5.50;;;2.10;;
57249;SDS011;43102;52.014;-0.680;2022-12-20T05:25:10;5.50;;;2.10;;
57249;SDS011;43102;52.014;-0.680;2022-12-20T05:26:01;5.50;;;2.10;;
57249;SDS011;43102;52.014;-0.680;2022-12-20T05:27:00;5.50;;;2.10;;
57249;SDS011;43102;52.014;-0.680;2022-12-20T05:28:00;5.50;;;2.10;;
57249;SDS011;43102;52.014;-0.680;2022-12-20T05:29:00;5.50;;;2.10;;
57249;SDS011;43102;52.014;-0.680;2022-12-20T05:30:00;5.50;;;2.10;;
57249;SDS011;43102;52.014;-0.680;2022-12-20T05:31:01;5.50;;;2.10;;
57249;SDS011;43102;52.014;-0.680;2022-12-20T05:32:00;5.50;;;2.10;;
57249;SDS011;43102;52.014;-0.680;2022-12-20T05:33:00;5.50;;;2.10;;
57249;SDS011;43102;52.014;-0.680;2022-12-20T05:34:00;5.50;;;2.10;;
57249;SDS011;43102;52.014;-0.680;2022-12-20T05:35:00;5.50;;;2.10;;
57249;SDS011;43102;52.014;-0.680;2022-12-20T05:36:00;5.50;;;2.10;;
57249;SDS011;43102;52.014;-0.680;2022-12-20T05:37:00;5.50;;;2.10;;
57249;SDS011;43102;52.014;-0.680;2022-12-20T05:38:01;5.50;;;2.10;;
57249;SDS011;43102;52.014;-0.680;2022-12-20T05:39:05;5.50;;;2.10;;
57249;SDS011;43102;52.014;-0.680;2022-12-20T05:40:00;5.50;;;2.10;;
57249;SDS011;43102;52.014;-0.680;2022-12-20T05:41:00;5.50;;;2.10;;
57249;SDS011;43102;52.014;-0.680;2022-12-20T05:42:00;5.50;;;2.10;;
57249;SDS011;43102;52.014;-0.680;2022-12-20T05:43:00;5.50;;;2.10;;
57249;SDS011;43102;52.014;-0.680;2022-12-20T05:44:00;5.50;;;2.10;;
57249;SDS011;43102;52.014;-0.680;2022-12-20T05:45:00;5.50;;;2.10;;
57249;SDS011;43102;52.014;-0.680;2022-12-20T05:46:00;5.50;;;2.10;;
57249;SDS011;43102;52.014;-0.680;2022-12-20T05:47:00;5.50;;;2.10;;
57249;SDS011;43102;52.014;-0.680;2022-12-20T05:48:00;5.50;;;2.10;;
57249;SDS011;43102;52.014;-0.680;2022-12-20T05:49:00;5.50;;;2.10;;
57249;SDS011;43102;52.014;-0.680;2022-12-20T05:50:00;5.50;;;2.10;;
57249;SDS011;43102;52.014;-0.680;2022-12-20T05:51:00;5.50;;;2.10;;
57249;SDS011;43102;52.014;-0.680;2022-12-20T05:52:01;5.50;;;2.10;;
57249;SDS011;43102;52.014;-0.680;2022-12-20T05:53:06;1.80;;;0.90;;
57249;SDS011;43102;52.014;-0.680;2022-12-20T05:54:00;1.80;;;0.90;;
57249;SDS011;43102;52.014;-0.680;2022-12-20T05:55:00;1.80;;;0.90;;
57249;SDS011;43102;52.014;-0.680;2022-12-20T05:56:00;1.80;;;0.90;;
57249;SDS011;43102;52.014;-0.680;2022-12-20T05:57:00;1.80;;;0.90;;
57249;SDS011;43102;52.014;-0.680;2022-12-20T05:58:01;1.80;;;0.90;;
57249;SDS011;43102;52.014;-0.680;2022-12-20T05:59:00;1.80;;;0.90;;
57249;SDS011;43102;52.014;-0.680;2022-12-20T06:00:01;1.80;;;0.90;;
57249;SDS011;43102;52.014;-0.680;2022-12-20T06:01:02;1.80;;;0.90;;
57249;SDS011;43102;52.014;-0.680;2022-12-20T06:02:00;1.80;;;0.90;;